Time;durP1;ratioP1;P1;durP2;ratioP2;P2;SDS_P1;SDS_P2;PMS_P1;PMS_P2;Temp;Humidity;BMP_temperature;BMP_pressure;BME280_temperature;BME280_humidity;BME280_pressure;Samples;Min_cycle;Max_cycle;Signal;HPM_P1;HPM_P2
2022/12/15 00:40:06;;;;;;;2.20;1.20;;;;;;;;;;5116680;28;20031;-71
2022/12/15 00:42:31;;;;;;;3.73;1.50;;;;;;;;;;5116522;28;20057;-70
2022/12/15 00:44:57;;;;;;;2.77;1.50;;;;;;;;;;5114698;28;20048;-70
2022/12/15 00:47:23;;;;;;;4.37;1.90;;;;;;;;;;5114351;28;20365;-70
2022/12/15 01:22:40;;;;;;;4.77;1.67;;;;;;;;;;5115283;28;20065;-69
2022/12/15 01:25:07;;;;;;;3.53;1.50;;;;;;;;;;5116598;28;20603;-74
2022/12/15 01:27:32;;;;;;;5.40;1.63;;;;;;;;;;5118998;28;20011;-73
2022/12/15 01:29:58;;;;;;;3.40;1.50;;;;;;;;;;5116472;28;20020;-70
2022/12/15 01:32:23;;;;;;;3.67;2.13;;;;;;;;;;5114648;28;20135;-72
2022/12/15 01:34:48;;;;;;;4.57;1.70;;;;;;;;;;5114894;28;20035;-70
2022/12/15 01:37:14;;;;;;;6.80;2.30;;;;;;;;;;5114351;28;20098;-69
2022/12/15 01:42:25;;;;;;;3.15;1.70;;;;;;;;;;5113509;28;20074;-71
2022/12/15 01:44:51;;;;;;;4.00;1.50;;;;;;;;;;5113335;28;20464;-69
2022/12/15 01:47:16;;;;;;;3.97;2.10;;;;;;;;;;5114461;28;20024;-70
2022/12/15 01:49:46;;;;;;;6.80;1.53;;;;;;;;;;5114726;28;20016;-69
2022/12/15 01:52:13;;;;;;;3.83;1.80;;;;;;;;;;5114974;28;20023;-69
2022/12/15 01:54:47;;;;;;;3.77;2.07;;;;;;;;;;5113765;28;20368;-70
2022/12/15 01:57:17;;;;;;;4.73;2.00;;;;;;;;;;5113583;28;20046;-71
2022/12/15 01:59:49;;;;;;;3.53;1.90;;;;;;;;;;5116543;28;20058;-70
2022/12/15 02:02:16;;;;;;;3.57;1.83;;;;;;;;;;5115318;28;20038;-71
2022/12/15 02:04:42;;;;;;;4.47;1.77;;;;;;;;;;5115541;28;20030;-73
2022/12/15 02:07:14;;;;;;;4.23;1.90;;;;;;;;;;5114935;28;20015;-72
2022/12/15 02:09:44;;;;;;;4.63;1.73;;;;;;;;;;5114120;28;20510;-71
2022/12/15 02:12:28;;;;;;;4.47;1.90;;;;;;;;;;5114554;28;20019;-72
2022/12/15 02:15:14;;;;;;;7.67;1.83;;;;;;;;;;5118254;28;20038;-73
2022/12/15 02:17:49;;;;;;;3.10;1.57;;;;;;;;;;5119196;28;20086;-72
2022/12/15 02:20:17;;;;;;;3.37;1.90;;;;;;;;;;5114110;28;20087;-71
2022/12/15 02:22:57;;;;;;;3.63;1.43;;;;;;;;;;5112997;28;20027;-70
2022/12/15 02:25:29;;;;;;;3.00;1.67;;;;;;;;;;5114356;28;20102;-70
2022/12/15 02:28:01;;;;;;;4.17;1.80;;;;;;;;;;5114552;28;20080;-71
2022/12/15 02:30:45;;;;;;;5.27;1.80;;;;;;;;;;5115120;28;20107;-70
2022/12/15 02:33:17;;;;;;;3.50;2.40;;;;;;;;;;5119266;28;20059;-70
2022/12/15 02:35:48;;;;;;;4.93;2.13;;;;;;;;;;5117910;28;20353;-70
2022/12/15 02:38:13;;;;;;;4.60;1.67;;;;;;;;;;5113213;28;20484;-71
2022/12/15 02:40:39;;;;;;;3.20;2.00;;;;;;;;;;5113156;28;20026;-70
2022/12/15 02:43:05;;;;;;;5.53;2.03;;;;;;;;;;5112667;28;20039;-71
2022/12/15 02:45:33;;;;;;;3.80;2.10;;;;;;;;;;5112877;28;20012;-71
2022/12/15 02:48:19;;;;;;;3.80;1.83;;;;;;;;;;5112362;28;20016;-71
2022/12/15 02:51:00;;;;;;;3.47;1.57;;;;;;;;;;5111106;28;20031;-71
2022/12/15 02:53:48;;;;;;;3.03;1.73;;;;;;;;;;5113954;28;20016;-70
2022/12/15 02:56:23;;;;;;;3.70;1.33;;;;;;;;;;5112047;28;20012;-71
2022/12/15 02:58:48;;;;;;;;;;;;;;;;;;5112406;28;20016;-69
2022/12/15 03:01:19;;;;;;;2.90;1.07;;;;;;;;;;5112308;28;20305;-74
2022/12/15 03:03:46;;;;;;;3.13;1.57;;;;;;;;;;5116168;28;20016;-69
2022/12/15 03:06:11;;;;;;;3.33;1.53;;;;;;;;;;5116059;28;20016;-71
2022/12/15 03:08:36;;;;;;;3.73;1.90;;;;;;;;;;5117083;28;20020;-74
2022/12/15 03:11:02;;;;;;;2.80;1.53;;;;;;;;;;5116802;28;20012;-70
2022/12/15 03:13:27;;;;;;;4.87;2.13;;;;;;;;;;5116795;28;20027;-72
2022/12/15 03:15:53;;;;;;;5.17;1.83;;;;;;;;;;5114785;28;20382;-70
2022/12/15 03:18:18;;;;;;;3.53;1.80;;;;;;;;;;5115691;28;20112;-75
2022/12/15 03:20:44;;;;;;;4.40;1.97;;;;;;;;;;5115495;28;20458;-73
2022/12/15 03:23:09;;;;;;;4.40;1.20;;;;;;;;;;5113318;28;20028;-71
2022/12/15 03:25:35;;;;;;;3.30;1.73;;;;;;;;;;5113839;28;20353;-72
2022/12/15 03:28:01;;;;;;;1.50;0.90;;;;;;;;;;5114789;28;20095;-72
2022/12/15 03:30:27;;;;;;;2.23;1.17;;;;;;;;;;5115038;28;20110;-72
2022/12/15 03:32:52;;;;;;;4.43;1.83;;;;;;;;;;5111638;28;20079;-72
2022/12/15 03:35:17;;;;;;;3.63;1.23;;;;;;;;;;5112667;28;20535;-71
2022/12/15 03:37:43;;;;;;;3.07;1.77;;;;;;;;;;5111235;28;20068;-71
2022/12/15 03:40:12;;;;;;;7.23;1.97;;;;;;;;;;5111654;28;20023;-72
2022/12/15 03:42:47;;;;;;;3.43;1.93;;;;;;;;;;5111842;28;20032;-72
2022/12/15 03:45:17;;;;;;;3.87;1.97;;;;;;;;;;5111553;28;20061;-71
2022/12/15 03:47:43;;;;;;;3.13;1.83;;;;;;;;;;5112035;28;20019;-73
2022/12/15 03:50:09;;;;;;;4.20;1.70;;;;;;;;;;5111990;28;20019;-71
2022/12/15 03:52:35;;;;;;;5.23;2.00;;;;;;;;;;5113293;28;20049;-71
2022/12/15 03:55:00;;;;;;;4.40;2.50;;;;;;;;;;5111619;28;20012;-71
2022/12/15 03:57:25;;;;;;;4.80;2.27;;;;;;;;;;5112657;28;20464;-72
2022/12/15 03:59:51;;;;;;;5.90;2.07;;;;;;;;;;5112270;28;20023;-72
2022/12/15 04:02:16;;;;;;;5.03;2.60;;;;;;;;;;5114167;28;20495;-71
2022/12/15 04:04:42;;;;;;;4.17;1.97;;;;;;;;;;5113841;28;20379;-71
2022/12/15 04:07:08;;;;;;;4.83;2.73;;;;;;;;;;5117357;28;20475;-73
2022/12/15 04:09:34;;;;;;;3.90;1.60;;;;;;;;;;5119512;28;20042;-72
2022/12/15 04:12:02;;;;;;;4.47;2.03;;;;;;;;;;5119616;28;20019;-72
2022/12/15 04:14:27;;;;;;;4.17;2.17;;;;;;;;;;5119476;28;20048;-71
2022/12/15 04:16:53;;;;;;;3.73;1.50;;;;;;;;;;5120593;28;20479;-72
2022/12/15 04:22:03;;;;;;;4.50;2.05;;;;;;;;;;5123138;28;20399;-74
2022/12/15 05:32:50;;;;;;;4.13;2.07;;;;;;;;;;5115633;28;20545;-72
2022/12/15 05:35:17;;;;;;;5.43;2.53;;;;;;;;;;5114526;28;20019;-72
2022/12/15 05:37:42;;;;;;;3.90;2.13;;;;;;;;;;5115714;28;20042;-73
2022/12/15 05:40:08;;;;;;;6.77;2.23;;;;;;;;;;5115329;28;20371;-72
2022/12/15 05:42:33;;;;;;;5.73;2.33;;;;;;;;;;5115186;28;20060;-71
2022/12/15 05:44:59;;;;;;;6.43;2.40;;;;;;;;;;5113527;28;20494;-73
2022/12/15 05:47:25;;;;;;;4.10;2.10;;;;;;;;;;5114027;28;20023;-72
2022/12/15 05:49:50;;;;;;;7.27;3.20;;;;;;;;;;5114256;28;20020;-72
2022/12/15 05:52:16;;;;;;;5.30;1.87;;;;;;;;;;5113275;28;20020;-72
2022/12/15 05:54:42;;;;;;;4.33;2.30;;;;;;;;;;5115553;28;20106;-72
2022/12/15 05:57:08;;;;;;;4.57;2.73;;;;;;;;;;5113108;28;20024;-74
2022/12/15 05:59:33;;;;;;;5.30;2.77;;;;;;;;;;5113223;28;20016;-72
2022/12/15 06:01:59;;;;;;;6.53;2.87;;;;;;;;;;5114674;28;20379;-72
2022/12/15 06:04:25;;;;;;;4.73;2.70;;;;;;;;;;5114567;28;20480;-74
2022/12/15 06:06:51;;;;;;;6.13;2.50;;;;;;;;;;5112752;28;20053;-74
2022/12/15 06:09:16;;;;;;;7.47;3.00;;;;;;;;;;5112611;28;20547;-73
2022/12/15 06:11:42;;;;;;;7.13;2.77;;;;;;;;;;5114050;28;20043;-73
2022/12/15 06:14:08;;;;;;;5.83;2.90;;;;;;;;;;5113544;28;20072;-74
2022/12/15 06:16:34;;;;;;;5.73;2.73;;;;;;;;;;5113867;28;20087;-73
2022/12/15 06:19:00;;;;;;;4.77;2.57;;;;;;;;;;5115473;28;20023;-74
2022/12/15 06:21:28;;;;;;;5.87;2.70;;;;;;;;;;5116015;28;20036;-75
2022/12/15 06:23:55;;;;;;;7.30;3.00;;;;;;;;;;5116581;28;20411;-73
2022/12/15 06:26:23;;;;;;;6.27;2.87;;;;;;;;;;5114873;28;20076;-74
2022/12/15 06:28:49;;;;;;;5.40;2.43;;;;;;;;;;5115116;28;20020;-74
2022/12/15 06:31:15;;;;;;;6.83;2.77;;;;;;;;;;5112954;28;20054;-73
2022/12/15 06:33:40;;;;;;;7.33;3.33;;;;;;;;;;5116062;28;20059;-74
2022/12/15 06:36:10;;;;;;;5.87;2.43;;;;;;;;;;5115183;28;20040;-74
2022/12/15 06:38:36;;;;;;;6.67;3.43;;;;;;;;;;5114393;28;20041;-74
2022/12/15 06:41:02;;;;;;;4.37;2.20;;;;;;;;;;5113874;28;20023;-73
2022/12/15 06:43:28;;;;;;;6.43;2.80;;;;;;;;;;5114292;28;20031;-74
2022/12/15 06:45:54;;;;;;;6.33;2.40;;;;;;;;;;5112447;28;20020;-73
2022/12/15 06:48:20;;;;;;;6.83;2.77;;;;;;;;;;5113616;28;20078;-74
2022/12/15 06:50:46;;;;;;;5.10;2.93;;;;;;;;;;5112242;28;20015;-74
2022/12/15 06:53:16;;;;;;;6.10;2.50;;;;;;;;;;5112506;28;20039;-72
2022/12/15 06:55:42;;;;;;;5.63;3.10;;;;;;;;;;5112459;28;20047;-74
2022/12/15 06:58:07;;;;;;;5.53;2.97;;;;;;;;;;5114166;28;20060;-74
2022/12/15 07:00:35;;;;;;;6.43;3.50;;;;;;;;;;5111710;28;20051;-75
2022/12/15 07:03:01;;;;;;;7.27;3.07;;;;;;;;;;5113440;28;20070;-74
2022/12/15 07:05:27;;;;;;;6.50;2.97;;;;;;;;;;5112344;28;20517;-72
2022/12/15 07:07:52;;;;;;;8.10;3.03;;;;;;;;;;5112090;28;20019;-74
2022/12/15 07:10:17;;;;;;;5.17;2.23;;;;;;;;;;5115529;28;20016;-74
2022/12/15 07:12:43;;;;;;;4.77;2.87;;;;;;;;;;5117237;28;20008;-74
2022/12/15 07:15:10;;;;;;;8.57;2.60;;;;;;;;;;5114996;28;20093;-75
2022/12/15 07:17:35;;;;;;;8.13;3.00;;;;;;;;;;5113488;28;20008;-73
2022/12/15 07:20:01;;;;;;;7.47;3.10;;;;;;;;;;5112208;28;20026;-75
2022/12/15 07:22:27;;;;;;;8.43;3.37;;;;;;;;;;5111730;28;20027;-75
2022/12/15 07:24:54;;;;;;;20.53;5.10;;;;;;;;;;5112029;28;20111;-75
2022/12/15 07:27:19;;;;;;;8.87;4.30;;;;;;;;;;5112353;28;20032;-74
2022/12/15 07:29:44;;;;;;;7.23;3.77;;;;;;;;;;5111523;28;20016;-75
2022/12/15 07:32:10;;;;;;;9.63;4.20;;;;;;;;;;5112405;28;20044;-74
2022/12/15 07:34:35;;;;;;;10.23;3.47;;;;;;;;;;5112152;28;20047;-73
2022/12/15 07:37:01;;;;;;;9.30;3.47;;;;;;;;;;5112617;28;20016;-75
2022/12/15 07:39:27;;;;;;;8.03;3.70;;;;;;;;;;5113703;28;20056;-75
2022/12/15 07:41:52;;;;;;;7.53;3.40;;;;;;;;;;5117412;28;20432;-74
2022/12/15 07:44:17;;;;;;;8.47;3.90;;;;;;;;;;5118053;28;20011;-74
2022/12/15 07:46:47;;;;;;;7.80;3.10;;;;;;;;;;5116474;28;20057;-75
2022/12/15 07:49:13;;;;;;;11.17;5.03;;;;;;;;;;5117075;28;20027;-75
2022/12/15 07:51:40;;;;;;;6.03;3.23;;;;;;;;;;5118703;28;20439;-74
2022/12/15 07:54:05;;;;;;;9.57;3.00;;;;;;;;;;5119430;28;20033;-75
2022/12/15 07:56:31;;;;;;;8.67;3.80;;;;;;;;;;5117602;28;20007;-74
2022/12/15 07:58:58;;;;;;;9.97;4.00;;;;;;;;;;5117314;28;20054;-75
2022/12/15 08:01:23;;;;;;;8.33;4.40;;;;;;;;;;5116907;28;20028;-76
2022/12/15 08:03:49;;;;;;;5.90;3.40;;;;;;;;;;5115006;28;20032;-74
2022/12/15 08:06:14;;;;;;;13.90;4.20;;;;;;;;;;5114737;28;20031;-74
2022/12/15 08:08:40;;;;;;;14.10;4.13;;;;;;;;;;5115400;28;20053;-75
2022/12/15 08:11:06;;;;;;;7.13;3.33;;;;;;;;;;5115566;28;20020;-74
2022/12/15 08:13:32;;;;;;;17.03;7.53;;;;;;;;;;5114817;28;20042;-73
2022/12/15 08:15:58;;;;;;;10.27;3.60;;;;;;;;;;5114722;28;20023;-74
2022/12/15 08:18:23;;;;;;;6.63;3.47;;;;;;;;;;5116308;28;20061;-74
2022/12/15 08:20:49;;;;;;;6.30;2.90;;;;;;;;;;5114524;28;20035;-74
2022/12/15 08:23:14;;;;;;;7.87;3.30;;;;;;;;;;5115998;28;20123;-74
2022/12/15 08:25:39;;;;;;;10.00;3.70;;;;;;;;;;5116886;28;20437;-76
2022/12/15 08:28:05;;;;;;;7.90;3.60;;;;;;;;;;5117972;28;20022;-75
2022/12/15 08:30:32;;;;;;;6.53;2.87;;;;;;;;;;5114762;28;20067;-74
2022/12/15 08:32:57;;;;;;;8.17;2.73;;;;;;;;;;5113967;28;20560;-74
2022/12/15 08:35:22;;;;;;;7.17;3.27;;;;;;;;;;5114449;28;20094;-74
2022/12/15 08:37:49;;;;;;;6.90;3.43;;;;;;;;;;5114820;28;20032;-73
2022/12/15 08:40:14;;;;;;;8.77;3.50;;;;;;;;;;5115079;28;20359;-74
2022/12/15 08:42:40;;;;;;;10.00;3.97;;;;;;;;;;5114345;28;20076;-74
2022/12/15 08:45:06;;;;;;;10.03;4.63;;;;;;;;;;5115688;28;20042;-74
2022/12/15 08:47:31;;;;;;;5.83;2.80;;;;;;;;;;5115484;28;20030;-75
2022/12/15 08:49:57;;;;;;;10.40;3.87;;;;;;;;;;5116528;28;20369;-75
2022/12/15 08:52:22;;;;;;;11.70;3.90;;;;;;;;;;5114286;28;20015;-74
2022/12/15 08:54:51;;;;;;;9.00;4.30;;;;;;;;;;5115116;28;20015;-74
2022/12/15 08:57:16;;;;;;;8.40;3.87;;;;;;;;;;5113595;28;20118;-75
2022/12/15 08:59:42;;;;;;;6.30;3.43;;;;;;;;;;5115248;28;20103;-73
2022/12/15 09:02:09;;;;;;;7.87;3.40;;;;;;;;;;5115771;28;20035;-73
2022/12/15 09:04:34;;;;;;;8.60;3.40;;;;;;;;;;5115888;28;20019;-73
2022/12/15 09:07:00;;;;;;;9.50;3.57;;;;;;;;;;5114230;28;20023;-73
2022/12/15 09:09:26;;;;;;;8.67;4.43;;;;;;;;;;5115839;28;20016;-72
2022/12/15 09:11:51;;;;;;;9.97;3.90;;;;;;;;;;5116963;28;20419;-75
2022/12/15 09:14:17;;;;;;;8.60;3.60;;;;;;;;;;5116074;28;20028;-77
2022/12/15 09:16:43;;;;;;;9.70;4.17;;;;;;;;;;5115451;28;20060;-72
2022/12/15 09:19:09;;;;;;;10.00;4.13;;;;;;;;;;5112806;28;20405;-73
2022/12/15 09:21:34;;;;;;;5.70;3.40;;;;;;;;;;5115005;28;20078;-70
2022/12/15 09:24:00;;;;;;;9.13;4.67;;;;;;;;;;5113430;28;20042;-73
2022/12/15 09:26:26;;;;;;;11.03;4.57;;;;;;;;;;5113607;28;20041;-74
2022/12/15 09:28:55;;;;;;;8.27;4.23;;;;;;;;;;5113469;28;20176;-73
2022/12/15 09:31:22;;;;;;;8.43;3.50;;;;;;;;;;5114629;28;20043;-75
2022/12/15 09:33:49;;;;;;;10.87;4.20;;;;;;;;;;5114120;28;20535;-75
2022/12/15 09:36:14;;;;;;;8.10;3.17;;;;;;;;;;5113015;28;20038;-73
2022/12/15 09:38:40;;;;;;;7.73;3.87;;;;;;;;;;5113241;28;20483;-72
2022/12/15 09:41:12;;;;;;;6.67;3.90;;;;;;;;;;5112975;28;20066;-75
2022/12/15 09:43:40;;;;;;;8.70;4.27;;;;;;;;;;5114590;28;20103;-74
2022/12/15 09:46:11;;;;;;;8.03;4.30;;;;;;;;;;5115683;28;20106;-74
2022/12/15 09:48:43;;;;;;;7.10;3.87;;;;;;;;;;5115559;28;20035;-75
2022/12/15 09:51:11;;;;;;;9.93;3.73;;;;;;;;;;5114954;28;20105;-73
2022/12/15 09:53:38;;;;;;;6.47;3.60;;;;;;;;;;5115760;28;20024;-74
2022/12/15 09:56:12;;;;;;;12.20;5.93;;;;;;;;;;5115242;28;20019;-75
2022/12/15 09:58:45;;;;;;;11.43;5.93;;;;;;;;;;5114749;28;20023;-74
2022/12/15 10:01:11;;;;;;;6.53;3.10;;;;;;;;;;5115582;28;20030;-76
2022/12/15 10:03:48;;;;;;;6.30;3.03;;;;;;;;;;5115534;28;20039;-77
2022/12/15 10:06:18;;;;;;;10.40;5.07;;;;;;;;;;5114008;28;20030;-74
2022/12/15 10:08:46;;;;;;;5.93;2.90;;;;;;;;;;5115545;28;20038;-74
2022/12/15 10:11:14;;;;;;;5.20;2.57;;;;;;;;;;5115089;28;20026;-74
2022/12/15 10:13:43;;;;;;;4.27;2.60;;;;;;;;;;5113385;28;20023;-74
2022/12/15 10:16:29;;;;;;;7.23;3.27;;;;;;;;;;5114445;28;20020;-74
2022/12/15 10:18:54;;;;;;;;;;;;;;;;;;5112864;28;20135;-74
2022/12/15 10:21:21;;;;;;;6.80;3.53;;;;;;;;;;5112327;28;19943;-75
2022/12/15 10:23:47;;;;;;;6.13;2.50;;;;;;;;;;5112508;28;20023;-74
2022/12/15 10:26:18;;;;;;;5.93;2.23;;;;;;;;;;5112978;28;20433;-75
2022/12/15 10:28:51;;;;;;;6.67;2.80;;;;;;;;;;5112107;28;20047;-75
2022/12/15 10:31:24;;;;;;;4.60;2.23;;;;;;;;;;5111902;28;20019;-74
2022/12/15 10:34:03;;;;;;;4.93;2.33;;;;;;;;;;5111451;28;20126;-73
2022/12/15 10:36:29;;;;;;;5.00;2.50;;;;;;;;;;5111644;28;20016;-74
2022/12/15 10:38:54;;;;;;;6.03;3.10;;;;;;;;;;5111457;28;20069;-73
2022/12/15 10:41:21;;;;;;;5.50;2.40;;;;;;;;;;5110609;28;20349;-74
2022/12/15 10:43:47;;;;;;;5.00;2.53;;;;;;;;;;5113636;28;20098;-75
2022/12/15 10:46:12;;;;;;;5.47;2.60;;;;;;;;;;5111357;28;20019;-74
2022/12/15 10:48:39;;;;;;;5.13;2.60;;;;;;;;;;5111140;28;20020;-74
2022/12/15 10:51:13;;;;;;;5.40;2.27;;;;;;;;;;5112587;28;20028;-74
2022/12/15 10:53:41;;;;;;;4.68;2.83;;;;;;;;;;5111353;28;20023;-74
2022/12/15 10:56:07;;;;;;;5.73;2.10;;;;;;;;;;5113464;28;20028;-76
2022/12/15 10:58:54;;;;;;;5.23;2.50;;;;;;;;;;5113613;28;20015;-74
2022/12/15 11:01:23;;;;;;;5.87;1.90;;;;;;;;;;5110468;28;20062;-75
2022/12/15 11:03:51;;;;;;;4.73;2.20;;;;;;;;;;5111238;28;20037;-75
2022/12/15 11:06:21;;;;;;;7.70;2.67;;;;;;;;;;5110878;28;20069;-75
2022/12/15 11:08:47;;;;;;;3.73;1.87;;;;;;;;;;5112329;28;20049;-74
2022/12/15 11:14:12;;;;;;;3.70;2.00;;;;;;;;;;5114615;28;20084;-73
2022/12/15 11:16:47;;;;;;;6.07;2.20;;;;;;;;;;5114779;28;20027;-74
2022/12/15 11:19:15;;;;;;;4.22;2.10;;;;;;;;;;5116000;28;20023;-74
2022/12/15 11:21:46;;;;;;;5.17;2.30;;;;;;;;;;5115232;28;20039;-75
2022/12/15 11:24:30;;;;;;;5.77;2.50;;;;;;;;;;5115717;28;20110;-74
2022/12/15 11:27:08;;;;;;;7.17;3.17;;;;;;;;;;5117180;28;20030;-73
2022/12/15 11:29:36;;;;;;;8.57;3.50;;;;;;;;;;5116813;28;20020;-74
2022/12/15 11:32:02;;;;;;;4.67;2.60;;;;;;;;;;5116696;28;20052;-74
2022/12/15 11:34:38;;;;;;;8.27;2.90;;;;;;;;;;5115485;28;20049;-75
2022/12/15 11:37:03;;;;;;;4.50;1.97;;;;;;;;;;5114934;28;20058;-75
2022/12/15 11:39:35;;;;;;;7.97;3.13;;;;;;;;;;5116311;28;20077;-74
2022/12/15 11:42:03;;;;;;;8.37;3.23;;;;;;;;;;5114749;28;20150;-74
2022/12/15 11:44:34;;;;;;;12.47;3.93;;;;;;;;;;5116935;28;20020;-73
2022/12/15 11:47:15;;;;;;;6.97;4.13;;;;;;;;;;5115919;28;20016;-74
2022/12/15 11:49:44;;;;;;;9.70;3.97;;;;;;;;;;5117428;28;20028;-76
2022/12/15 11:52:18;;;;;;;9.93;4.20;;;;;;;;;;5117695;28;20471;-75
2022/12/15 11:54:54;;;;;;;5.40;3.40;;;;;;;;;;5116403;28;20023;-74
2022/12/15 11:57:22;;;;;;;6.77;2.73;;;;;;;;;;5114592;28;20084;-74
2022/12/15 12:00:00;;;;;;;9.13;2.90;;;;;;;;;;5114418;28;20023;-75
2022/12/15 12:02:29;;;;;;;5.60;2.80;;;;;;;;;;5114750;28;20024;-72
2022/12/15 12:05:14;;;;;;;8.27;3.60;;;;;;;;;;5114833;28;20415;-74
2022/12/15 12:07:39;;;;;;;9.43;3.67;;;;;;;;;;5116409;28;20480;-74
2022/12/15 12:10:16;;;;;;;11.40;5.57;;;;;;;;;;5115456;28;20022;-74
2022/12/15 12:12:48;;;;;;;7.60;4.37;;;;;;;;;;5115333;28;20019;-74
2022/12/15 12:15:34;;;;;;;8.57;4.03;;;;;;;;;;5115332;28;20031;-74
2022/12/15 12:18:10;;;;;;;9.67;4.30;;;;;;;;;;5116700;28;20464;-75
2022/12/15 12:20:42;;;;;;;6.93;3.20;;;;;;;;;;5116147;28;20026;-72
2022/12/15 12:23:13;;;;;;;11.77;3.90;;;;;;;;;;5116647;28;20027;-74
2022/12/15 12:25:42;;;;;;;5.83;2.93;;;;;;;;;;5115287;28;20026;-74
2022/12/15 12:28:30;;;;;;;10.17;3.63;;;;;;;;;;5115410;28;20022;-73
2022/12/15 12:30:56;;;;;;;6.73;3.20;;;;;;;;;;5112317;28;20040;-75
2022/12/15 12:33:54;;;;;;;9.03;3.87;;;;;;;;;;5114312;28;20058;-75
2022/12/15 12:36:20;;;;;;;8.57;4.20;;;;;;;;;;5090974;28;20087;-74
2022/12/15 12:38:50;;;;;;;5.80;3.27;;;;;;;;;;5114615;28;20114;-76
2022/12/15 12:41:26;;;;;;;4.63;1.77;;;;;;;;;;5114505;28;20108;-75
2022/12/15 12:43:54;;;;;;;2.90;1.03;;;;;;;;;;5115516;28;20029;-74
2022/12/15 12:46:24;;;;;;;1.73;0.90;;;;;;;;;;5118353;28;20020;-75
2022/12/15 12:48:55;;;;;;;3.10;1.07;;;;;;;;;;5118765;28;20015;-75
2022/12/15 12:51:29;;;;;;;4.07;1.40;;;;;;;;;;5116632;27;20122;-75
2022/12/15 12:53:55;;;;;;;4.87;2.17;;;;;;;;;;5116406;28;20027;-74
2022/12/15 12:56:31;;;;;;;4.17;1.30;;;;;;;;;;5114419;28;20031;-75
2022/12/15 12:58:56;;;;;;;2.63;1.27;;;;;;;;;;5115777;28;20103;-75
2022/12/15 13:01:27;;;;;;;4.60;2.53;;;;;;;;;;5114315;28;20047;-73
2022/12/15 13:04:06;;;;;;;6.13;2.27;;;;;;;;;;5114638;28;20427;-74
2022/12/15 13:06:34;;;;;;;4.73;1.77;;;;;;;;;;5114356;28;20026;-74
2022/12/15 13:09:23;;;;;;;5.17;2.20;;;;;;;;;;5114093;28;20039;-74
2022/12/15 13:11:52;;;;;;;3.97;2.27;;;;;;;;;;5108242;28;20038;-74
2022/12/15 13:14:18;;;;;;;2.77;1.33;;;;;;;;;;5114021;28;20046;-74
2022/12/15 13:16:45;;;;;;;3.57;1.80;;;;;;;;;;5115358;28;20023;-73
2022/12/15 13:19:11;;;;;;;3.70;1.40;;;;;;;;;;5113252;28;20051;-73
2022/12/15 13:24:23;;;;;;;6.50;1.87;;;;;;;;;;5114484;28;20031;-75
2022/12/15 13:26:49;;;;;;;2.97;2.07;;;;;;;;;;5113038;28;20081;-74
2022/12/15 13:29:16;;;;;;;6.67;2.60;;;;;;;;;;5112933;28;20016;-74
2022/12/15 13:31:48;;;;;;;4.27;1.43;;;;;;;;;;5112965;28;20079;-75
2022/12/15 13:34:19;;;;;;;5.47;2.80;;;;;;;;;;5113166;28;20079;-75
2022/12/15 13:36:45;;;;;;;8.40;2.60;;;;;;;;;;5112793;28;20491;-74
2022/12/15 13:39:14;;;;;;;3.87;2.00;;;;;;;;;;5112786;28;20039;-74
2022/12/15 13:41:45;;;;;;;3.53;1.87;;;;;;;;;;5113294;28;20043;-75
2022/12/15 13:44:14;;;;;;;9.33;2.80;;;;;;;;;;5112714;28;20020;-74
2022/12/15 13:46:43;;;;;;;5.40;2.17;;;;;;;;;;5114642;28;20028;-75
2022/12/15 13:49:19;;;;;;;5.33;2.33;;;;;;;;;;5115485;28;20019;-75
2022/12/15 13:51:45;;;;;;;6.10;2.27;;;;;;;;;;5114654;28;20064;-78
2022/12/15 13:54:17;;;;;;;8.80;2.13;;;;;;;;;;5112989;28;20463;-76
2022/12/15 13:56:43;;;;;;;4.00;2.27;;;;;;;;;;5112670;28;20016;-76
2022/12/15 13:59:28;;;;;;;4.77;2.50;;;;;;;;;;5110640;27;20357;-74
2022/12/15 14:01:53;;;;;;;5.97;2.63;;;;;;;;;;5110442;28;20024;-74
2022/12/15 14:04:20;;;;;;;6.67;3.17;;;;;;;;;;5113004;28;20073;-76
2022/12/15 14:06:51;;;;;;;6.50;3.10;;;;;;;;;;5111156;28;20425;-76
2022/12/15 14:09:37;;;;;;;4.10;2.03;;;;;;;;;;5109555;28;20020;-76
2022/12/15 14:12:04;;;;;;;9.30;3.00;;;;;;;;;;5110649;28;20024;-75
2022/12/15 14:14:32;;;;;;;4.73;2.23;;;;;;;;;;5110426;28;20084;-76
2022/12/15 14:17:00;;;;;;;5.67;2.60;;;;;;;;;;5110729;28;20032;-75
2022/12/15 14:19:25;;;;;;;5.47;2.77;;;;;;;;;;5109360;28;20070;-75
2022/12/15 14:21:55;;;;;;;9.80;3.10;;;;;;;;;;5111363;28;20467;-76
2022/12/15 14:24:25;;;;;;;8.00;3.07;;;;;;;;;;5110435;28;20376;-77
2022/12/15 14:26:51;;;;;;;7.37;2.70;;;;;;;;;;5112851;28;20040;-77
2022/12/15 14:29:18;;;;;;;9.83;3.27;;;;;;;;;;5110288;28;20471;-75
2022/12/15 14:31:46;;;;;;;5.13;2.80;;;;;;;;;;5110188;28;20051;-75
2022/12/15 14:34:33;;;;;;;5.47;2.80;;;;;;;;;;5108962;28;20090;-76
2022/12/15 14:37:01;;;;;;;6.97;2.73;;;;;;;;;;5108711;28;20551;-76
2022/12/15 14:39:33;;;;;;;5.70;2.43;;;;;;;;;;5109398;28;20034;-75
2022/12/15 14:42:00;;;;;;;5.37;1.53;;;;;;;;;;5110525;28;20051;-77
2022/12/15 14:44:28;;;;;;;5.87;2.50;;;;;;;;;;5108316;28;20468;-76
2022/12/15 14:46:55;;;;;;;9.37;4.63;;;;;;;;;;5109071;28;20491;-75
2022/12/15 14:49:40;;;;;;;6.93;2.70;;;;;;;;;;5108155;28;20027;-77
2022/12/15 14:52:06;;;;;;;6.88;3.40;;;;;;;;;;5107915;28;20051;-77
2022/12/15 14:54:35;;;;;;;7.90;3.30;;;;;;;;;;5109139;28;20024;-76
2022/12/15 14:57:01;;;;;;;7.67;3.10;;;;;;;;;;5108735;28;20472;-76
2022/12/15 14:59:30;;;;;;;6.37;3.13;;;;;;;;;;5109514;28;20055;-77
2022/12/15 15:02:06;;;;;;;10.67;3.50;;;;;;;;;;5108364;28;20032;-77
2022/12/15 15:04:32;;;;;;;7.00;3.40;;;;;;;;;;5108238;28;20019;-76
2022/12/15 15:06:59;;;;;;;8.30;3.87;;;;;;;;;;5107431;28;20084;-77
2022/12/15 15:09:29;;;;;;;9.87;3.47;;;;;;;;;;5102879;28;20119;-76
2022/12/15 15:12:00;;;;;;;7.80;3.30;;;;;;;;;;5094402;28;20024;-77
2022/12/15 15:14:27;;;;;;;9.33;3.57;;;;;;;;;;5096404;28;20024;-75
2022/12/15 15:17:01;;;;;;;10.97;4.43;;;;;;;;;;5097613;28;20111;-76
2022/12/15 15:19:26;;;;;;;7.80;3.53;;;;;;;;;;5095705;28;20035;-75
2022/12/15 15:21:52;;;;;;;8.73;3.77;;;;;;;;;;5097370;28;20017;-76
2022/12/15 15:24:28;;;;;;;20.20;9.00;;;;;;;;;;5094876;28;20039;-77
2022/12/15 15:26:53;;;;;;;7.97;3.40;;;;;;;;;;5095133;28;20047;-75
2022/12/15 15:29:48;;;;;;;9.37;3.80;;;;;;;;;;5096674;28;20469;-76
2022/12/15 15:32:15;;;;;;;6.30;3.90;;;;;;;;;;5083441;28;20038;-78
2022/12/15 15:34:41;;;;;;;6.77;3.77;;;;;;;;;;5094873;28;20361;-76
2022/12/15 15:37:25;;;;;;;6.17;3.40;;;;;;;;;;5094427;28;20050;-77
2022/12/15 15:39:51;;;;;;;8.90;4.20;;;;;;;;;;5096776;28;20377;-78
2022/12/15 15:42:16;;;;;;;9.43;4.67;;;;;;;;;;5094964;28;20031;-76
2022/12/15 15:44:42;;;;;;;6.97;3.03;;;;;;;;;;5095419;28;20020;-76
2022/12/15 15:47:22;;;;;;;8.43;3.37;;;;;;;;;;5093195;28;20175;-76
2022/12/15 15:49:49;;;;;;;6.83;3.27;;;;;;;;;;5095420;28;20436;-76
2022/12/15 15:52:15;;;;;;;5.40;2.67;;;;;;;;;;5094336;28;20016;-76
2022/12/15 15:54:41;;;;;;;7.30;3.10;;;;;;;;;;5094880;28;20407;-77
2022/12/15 15:57:10;;;;;;;6.77;3.20;;;;;;;;;;5094738;28;20027;-75
2022/12/15 15:59:37;;;;;;;6.30;3.13;;;;;;;;;;5094079;28;20024;-74
2022/12/15 16:02:03;;;;;;;7.60;3.23;;;;;;;;;;5094783;28;20031;-77
2022/12/15 16:04:28;;;;;;;7.60;2.93;;;;;;;;;;5094670;28;20421;-76
2022/12/15 16:06:54;;;;;;;7.77;2.37;;;;;;;;;;5093573;28;20051;-78
2022/12/15 16:09:19;;;;;;;5.83;3.00;;;;;;;;;;5093133;28;20449;-76
2022/12/15 16:11:45;;;;;;;8.30;3.20;;;;;;;;;;5094184;28;20041;-76
2022/12/15 16:14:15;;;;;;;6.13;4.03;;;;;;;;;;5092752;28;20020;-76
2022/12/15 16:16:40;;;;;;;3.97;2.03;;;;;;;;;;5092693;28;20364;-77
2022/12/15 16:19:06;;;;;;;8.40;4.40;;;;;;;;;;5092991;28;20028;-77
2022/12/15 16:21:33;;;;;;;6.03;3.00;;;;;;;;;;5091649;28;20023;-76
2022/12/15 16:24:00;;;;;;;6.47;2.60;;;;;;;;;;5092876;28;20074;-76
2022/12/15 16:26:30;;;;;;;6.13;2.90;;;;;;;;;;5093545;28;20103;-77
2022/12/15 16:28:55;;;;;;;6.20;2.77;;;;;;;;;;5093225;28;20366;-76
2022/12/15 16:31:28;;;;;;;7.37;2.67;;;;;;;;;;5096527;28;20076;-76
2022/12/15 16:33:54;;;;;;;4.57;2.60;;;;;;;;;;5095706;28;20482;-76
2022/12/15 16:36:19;;;;;;;6.13;3.33;;;;;;;;;;5095986;28;20036;-76
2022/12/15 16:38:45;;;;;;;8.47;3.20;;;;;;;;;;5093669;28;20123;-76
2022/12/15 16:41:13;;;;;;;7.30;3.40;;;;;;;;;;5094113;28;20016;-77
2022/12/15 16:43:38;;;;;;;4.73;3.00;;;;;;;;;;5092598;28;20020;-76
2022/12/15 16:46:04;;;;;;;9.03;3.23;;;;;;;;;;5092346;28;20031;-75
2022/12/15 16:48:29;;;;;;;8.93;3.13;;;;;;;;;;5094336;28;20468;-76
2022/12/15 16:50:57;;;;;;;6.87;3.17;;;;;;;;;;5093061;28;20115;-76
2022/12/15 16:53:34;;;;;;;5.93;3.00;;;;;;;;;;5094406;28;20016;-76
2022/12/15 16:56:01;;;;;;;7.33;2.50;;;;;;;;;;5092925;28;20111;-76
2022/12/15 16:58:27;;;;;;;6.03;2.40;;;;;;;;;;5093627;28;20455;-76
2022/12/15 17:00:53;;;;;;;7.07;3.00;;;;;;;;;;5094464;28;20036;-75
2022/12/15 17:03:21;;;;;;;6.07;3.37;;;;;;;;;;5093367;28;20020;-75
2022/12/15 17:05:48;;;;;;;8.13;3.50;;;;;;;;;;5091973;28;20031;-75
2022/12/15 17:08:24;;;;;;;7.83;4.23;;;;;;;;;;5093110;28;20153;-75
2022/12/15 17:10:50;;;;;;;7.87;3.70;;;;;;;;;;5091786;28;20133;-75
2022/12/15 17:13:30;;;;;;;11.30;5.57;;;;;;;;;;5092985;28;20547;-75
2022/12/15 17:15:57;;;;;;;8.03;3.77;;;;;;;;;;5093082;28;20020;-72
2022/12/15 17:18:23;;;;;;;6.83;3.40;;;;;;;;;;5093714;28;20056;-75
2022/12/15 17:20:48;;;;;;;10.97;3.90;;;;;;;;;;5091725;28;20050;-76
2022/12/15 17:23:19;;;;;;;5.20;3.07;;;;;;;;;;5091415;28;20016;-75